Time;durP1;ratioP1;P1;durP2;ratioP2;P2;SDS_P1;SDS_P2;PMS_P1;PMS_P2;Temp;Humidity;BMP_temperature;BMP_pressure;BME280_temperature;BME280_humidity;BME280_pressure;Samples;Min_cycle;Max_cycle;Signal;HPM_P1;HPM_P2
2023/05/12 00:00:25;;;;;;;7.57;3.78;;;15.80;93.00;;;;;;4591803;19;20101;-25
2023/05/12 00:02:17;;;;;;;7.38;3.58;;;15.80;92.70;;;;;;4589148;19;20393;-27
2023/05/12 00:03:48;;;;;;;7.47;3.55;;;15.80;92.50;;;;;;4589253;19;20006;-23
2023/05/12 00:05:22;;;;;;;8.85;4.22;;;15.80;92.10;;;;;;4589330;19;20015;-24
2023/05/12 00:06:53;;;;;;;;;;;15.90;92.20;;;;;;4590313;19;20027;-24
2023/05/12 00:08:24;;;;;;;7.85;4.00;;;15.80;92.40;;;;;;4589505;19;19907;-24
2023/05/12 00:09:58;;;;;;;6.00;3.78;;;15.80;92.80;;;;;;4589248;19;20074;-26
2023/05/12 00:11:32;;;;;;;7.00;3.90;;;15.80;92.60;;;;;;4589200;19;20034;-30
2023/05/12 00:13:03;;;;;;;6.82;4.00;;;15.80;92.20;;;;;;4586049;19;20010;-23
2023/05/12 00:14:35;;;;;;;6.15;3.58;;;15.80;92.70;;;;;;4588900;19;20423;-27
2023/05/12 00:16:06;;;;;;;6.25;3.97;;;15.80;92.20;;;;;;4589113;19;20018;-23
2023/05/12 00:17:39;;;;;;;10.88;3.90;;;15.80;92.30;;;;;;4588901;19;20363;-25
2023/05/12 00:19:10;;;;;;;6.40;4.13;;;15.80;92.50;;;;;;4588980;19;20018;-27
2023/05/12 00:20:44;;;;;;;5.90;3.55;;;15.80;92.50;;;;;;4589488;19;20031;-24
2023/05/12 00:22:15;;;;;;;5.90;3.40;;;15.80;92.30;;;;;;4591517;19;20452;-26
2023/05/12 00:23:47;;;;;;;7.35;4.20;;;15.80;92.00;;;;;;4591602;19;20027;-23
2023/05/12 00:25:18;;;;;;;;;;;15.80;92.40;;;;;;4592616;19;20010;-24
2023/05/12 00:26:52;;;;;;;6.47;3.60;;;15.80;92.30;;;;;;4589886;19;19914;-27
2023/05/12 00:28:23;;;;;;;5.47;3.60;;;15.80;92.80;;;;;;4590517;19;20010;-29
2023/05/12 00:29:54;;;;;;;7.10;3.50;;;15.80;92.30;;;;;;4591499;19;20006;-23
2023/05/12 00:31:26;;;;;;;5.40;3.60;;;15.80;92.50;;;;;;4591119;19;20006;-27
2023/05/12 00:32:59;;;;;;;5.88;3.75;;;15.80;92.50;;;;;;4590354;19;20082;-24
2023/05/12 00:34:30;;;;;;;7.80;4.30;;;15.80;92.60;;;;;;4591360;19;20024;-27
2023/05/12 00:36:02;;;;;;;7.43;3.97;;;15.80;92.40;;;;;;4591061;19;20014;-23
2023/05/12 00:37:34;;;;;;;7.10;3.58;;;15.70;92.10;;;;;;4590829;19;20015;-24
2023/05/12 00:39:07;;;;;;;5.60;3.67;;;15.80;92.40;;;;;;4589679;19;20031;-23
2023/05/12 00:40:40;;;;;;;8.15;3.90;;;15.70;92.00;;;;;;4589711;19;20030;-24
2023/05/12 00:42:11;;;;;;;7.50;4.13;;;15.70;92.00;;;;;;4588233;19;20028;-28
2023/05/12 00:43:43;;;;;;;6.57;3.78;;;15.70;92.00;;;;;;4590416;19;20018;-22
2023/05/12 00:45:16;;;;;;;8.02;4.57;;;15.70;92.40;;;;;;4590731;19;20022;-23
2023/05/12 00:46:47;;;;;;;7.45;3.85;;;15.70;92.10;;;;;;4589434;19;20018;-24
2023/05/12 00:48:18;;;;;;;;;;;15.70;91.80;;;;;;4589012;19;20030;-29
2023/05/12 00:49:50;;;;;;;7.35;4.53;;;15.70;91.80;;;;;;4588249;19;20243;-23
2023/05/12 00:51:21;;;;;;;7.65;4.28;;;15.70;91.90;;;;;;4588406;19;20029;-25
2023/05/12 00:52:53;;;;;;;7.32;3.72;;;15.70;92.10;;;;;;4587436;19;20010;-24
2023/05/12 00:54:25;;;;;;;7.72;3.53;;;15.70;92.50;;;;;;4587694;19;20010;-24
2023/05/12 00:55:57;;;;;;;7.70;4.47;;;15.70;92.10;;;;;;4588142;19;20018;-23
2023/05/12 00:57:30;;;;;;;6.43;4.22;;;15.70;91.90;;;;;;4588199;19;20480;-28
2023/05/12 00:59:02;;;;;;;7.28;3.97;;;15.70;92.50;;;;;;4588364;19;20483;-24
2023/05/12 01:00:34;;;;;;;;;;;15.70;92.60;;;;;;4589462;19;20011;-24
2023/05/12 01:02:06;;;;;;;7.85;3.65;;;15.70;92.40;;;;;;4588011;19;19922;-23
2023/05/12 01:03:39;;;;;;;6.22;3.78;;;15.70;92.30;;;;;;4587945;19;20024;-23
2023/05/12 01:05:11;;;;;;;6.50;4.57;;;15.70;92.90;;;;;;4588571;19;20003;-24
2023/05/12 01:07:00;;;;;;;6.47;4.22;;;15.70;92.50;;;;;;4587915;19;20010;-23
2023/05/12 01:08:34;;;;;;;6.00;3.78;;;15.70;92.40;;;;;;4588116;19;20074;-24
2023/05/12 01:10:18;;;;;;;6.70;3.92;;;15.70;92.30;;;;;;4588259;19;20014;-23
2023/05/12 01:11:50;;;;;;;6.55;4.00;;;15.70;92.40;;;;;;4588229;19;20038;-23
2023/05/12 01:13:21;;;;;;;6.45;3.70;;;15.70;92.30;;;;;;4587405;19;20014;-24
2023/05/12 01:14:54;;;;;;;6.40;4.25;;;15.70;92.40;;;;;;4587799;19;20014;-26
2023/05/12 01:16:30;;;;;;;5.95;3.70;;;15.70;92.50;;;;;;4588040;19;20021;-27
2023/05/12 01:18:02;;;;;;;5.35;3.60;;;15.70;92.20;;;;;;4588168;19;20024;-23
2023/05/12 01:19:57;;;;;;;5.88;3.50;;;15.70;92.10;;;;;;4587860;19;20019;-23
2023/05/12 01:21:29;;;;;;;5.93;3.65;;;15.70;92.60;;;;;;4587806;19;20014;-26
2023/05/12 01:23:00;;;;;;;7.00;3.70;;;15.70;92.50;;;;;;4588115;19;20022;-23
2023/05/12 01:24:32;;;;;;;7.72;3.90;;;15.70;91.90;;;;;;4587465;19;20068;-26
2023/05/12 01:26:09;;;;;;;8.85;3.95;;;15.70;91.80;;;;;;4588642;19;20042;-24
2023/05/12 01:27:43;;;;;;;7.13;4.30;;;15.70;92.10;;;;;;4589161;19;20009;-24
2023/05/12 01:29:16;;;;;;;6.25;3.92;;;15.70;91.60;;;;;;4588757;19;20351;-27
2023/05/12 01:30:47;;;;;;;6.40;4.00;;;15.70;91.60;;;;;;4588879;19;20035;-24
2023/05/12 01:32:19;;;;;;;6.00;4.68;;;15.70;91.40;;;;;;4588383;19;20018;-23
2023/05/12 01:33:50;;;;;;;6.47;3.83;;;15.70;91.70;;;;;;4589950;19;20069;-27
2023/05/12 01:35:23;;;;;;;6.07;4.35;;;15.60;91.60;;;;;;4588770;19;20019;-27
2023/05/12 01:36:54;;;;;;;5.82;3.90;;;15.70;91.70;;;;;;4589664;19;20018;-29
2023/05/12 01:38:26;;;;;;;6.10;4.07;;;15.60;91.50;;;;;;4589914;19;20532;-23
2023/05/12 01:39:58;;;;;;;8.30;4.63;;;15.70;91.90;;;;;;4588651;19;20003;-23
2023/05/12 01:41:29;;;;;;;7.80;5.07;;;15.70;91.70;;;;;;4589370;19;20099;-27
2023/05/12 01:43:02;;;;;;;7.82;4.28;;;15.70;91.90;;;;;;4590085;19;20024;-23
2023/05/12 01:44:33;;;;;;;7.25;3.92;;;15.60;91.50;;;;;;4589936;19;20535;-23
2023/05/12 01:46:05;;;;;;;6.18;4.18;;;15.60;91.30;;;;;;4589585;19;20038;-23
2023/05/12 01:47:38;;;;;;;6.85;4.07;;;15.60;91.30;;;;;;4589387;19;20007;-29
2023/05/12 01:49:09;;;;;;;;;;;15.60;91.20;;;;;;4590965;19;20050;-23
2023/05/12 01:50:41;;;;;;;6.72;4.13;;;15.60;91.50;;;;;;4590008;19;19919;-28
2023/05/12 01:52:14;;;;;;;7.15;4.10;;;15.60;91.40;;;;;;4589498;19;20501;-24
2023/05/12 01:53:45;;;;;;;6.72;4.25;;;15.60;91.60;;;;;;4588625;19;20499;-24
2023/05/12 01:55:17;;;;;;;6.05;4.18;;;15.60;91.40;;;;;;4589746;19;20019;-27
2023/05/12 01:56:49;;;;;;;7.32;4.28;;;15.60;91.70;;;;;;4589983;19;20010;-27
2023/05/12 01:58:21;;;;;;;;;;;15.60;91.70;;;;;;4590391;19;20036;-24
2023/05/12 01:59:52;;;;;;;7.47;4.20;;;15.60;91.60;;;;;;4589486;19;19914;-24
2023/05/12 02:01:27;;;;;;;6.82;4.07;;;15.60;91.60;;;;;;4587172;19;20007;-23
2023/05/12 02:02:59;;;;;;;6.32;4.35;;;15.60;91.90;;;;;;4588418;19;20015;-23
2023/05/12 02:04:30;;;;;;;6.50;3.95;;;15.60;92.10;;;;;;4589195;19;20014;-29
2023/05/12 02:06:03;;;;;;;7.20;4.13;;;15.60;92.20;;;;;;4589359;19;20468;-27
2023/05/12 02:07:35;;;;;;;7.55;4.78;;;15.60;91.60;;;;;;4589752;19;20018;-24
2023/05/12 02:09:06;;;;;;;6.88;4.30;;;15.60;91.60;;;;;;4588633;19;20013;-23
2023/05/12 02:10:40;;;;;;;7.35;5.25;;;15.60;91.60;;;;;;4589010;19;20018;-24
2023/05/12 02:12:12;;;;;;;7.13;4.28;;;15.60;91.60;;;;;;4588261;19;20010;-24
2023/05/12 02:13:46;;;;;;;7.28;4.13;;;15.60;91.50;;;;;;4587939;19;20014;-27
2023/05/12 02:15:19;;;;;;;9.18;4.78;;;15.60;91.70;;;;;;4587996;19;20014;-24
2023/05/12 02:16:51;;;;;;;6.35;4.18;;;15.60;91.50;;;;;;4586206;19;20087;-24
2023/05/12 02:18:22;;;;;;;6.82;4.65;;;15.60;91.40;;;;;;4584875;19;20022;-24
2023/05/12 02:19:54;;;;;;;7.10;4.35;;;15.60;91.60;;;;;;4585061;19;20599;-29
2023/05/12 02:21:26;;;;;;;6.70;3.70;;;15.60;91.60;;;;;;4585823;19;20029;-23
2023/05/12 02:22:58;;;;;;;6.72;4.22;;;15.60;91.20;;;;;;4588268;19;20010;-24
2023/05/12 02:24:29;;;;;;;7.28;4.38;;;15.60;91.20;;;;;;4585644;19;20022;-22
2023/05/12 02:26:01;;;;;;;5.00;3.50;;;15.60;91.30;;;;;;4589716;19;20353;-27
2023/05/12 02:27:32;;;;;;;7.55;4.60;;;15.60;91.40;;;;;;4588606;19;20014;-26
2023/05/12 02:29:03;;;;;;;6.85;4.43;;;15.60;91.40;;;;;;4589626;19;20014;-24
2023/05/12 02:30:34;;;;;;;7.00;4.32;;;15.60;91.40;;;;;;4589129;19;20477;-23
2023/05/12 02:32:06;;;;;;;6.47;4.25;;;15.60;91.40;;;;;;4589551;19;20018;-26
2023/05/12 02:33:37;;;;;;;;;;;15.60;91.30;;;;;;4588164;19;20025;-24
2023/05/12 02:35:09;;;;;;;9.40;4.30;;;15.60;91.70;;;;;;4588794;19;19982;-27
2023/05/12 02:36:40;;;;;;;5.30;3.88;;;15.60;91.50;;;;;;4593887;19;20014;-28
2023/05/12 02:38:12;;;;;;;13.13;4.97;;;15.50;91.60;;;;;;4593184;19;20017;-26
2023/05/12 02:39:43;;;;;;;6.65;3.92;;;15.50;91.50;;;;;;4590772;19;20022;-25
2023/05/12 02:41:14;;;;;;;8.10;4.30;;;15.60;91.50;;;;;;4593263;19;20082;-27
2023/05/12 02:42:46;;;;;;;7.35;4.47;;;15.50;91.60;;;;;;4593229;19;20018;-23
2023/05/12 02:44:19;;;;;;;9.15;4.68;;;15.50;91.30;;;;;;4593379;19;20756;-26
2023/05/12 02:45:50;;;;;;;8.95;4.45;;;15.50;91.40;;;;;;4592554;19;20029;-23
2023/05/12 02:47:21;;;;;;;7.68;4.35;;;15.60;91.80;;;;;;4592205;19;20472;-29
2023/05/12 02:48:53;;;;;;;7.45;4.85;;;15.50;91.60;;;;;;4593578;19;20100;-24
2023/05/12 02:50:24;;;;;;;8.50;4.05;;;15.60;91.70;;;;;;4593500;19;20010;-23
2023/05/12 02:51:56;;;;;;;7.90;4.65;;;15.50;91.80;;;;;;4592516;19;20592;-23
2023/05/12 02:53:29;;;;;;;5.57;4.45;;;15.50;91.80;;;;;;4591637;19;20015;-26
2023/05/12 02:55:00;;;;;;;8.57;4.60;;;15.50;91.70;;;;;;4592810;19;20015;-25
2023/05/12 02:56:33;;;;;;;7.22;4.28;;;15.50;91.60;;;;;;4591800;19;20021;-27
2023/05/12 02:58:04;;;;;;;;;;;15.50;91.60;;;;;;4593872;19;20010;-24
2023/05/12 02:59:36;;;;;;;8.35;4.75;;;15.50;91.60;;;;;;4591765;19;19919;-24
2023/05/12 03:01:08;;;;;;;8.35;4.72;;;15.50;91.60;;;;;;4593194;19;20074;-26
2023/05/12 03:02:40;;;;;;;6.93;4.45;;;15.50;91.80;;;;;;4592586;19;20015;-25
2023/05/12 03:04:13;;;;;;;7.05;4.43;;;15.50;91.50;;;;;;4592436;19;20034;-24
2023/05/12 03:05:47;;;;;;;5.97;4.22;;;15.50;91.80;;;;;;4591176;19;20023;-23
2023/05/12 03:07:19;;;;;;;7.50;4.43;;;15.50;91.90;;;;;;4591089;19;20031;-24
2023/05/12 03:08:50;;;;;;;8.38;4.70;;;15.50;92.00;;;;;;4593220;19;20524;-24
2023/05/12 03:10:36;;;;;;;7.90;4.28;;;15.60;91.70;;;;;;4590775;19;20397;-26
2023/05/12 03:12:08;;;;;;;6.85;4.22;;;15.50;91.60;;;;;;4593009;19;20015;-24
2023/05/12 03:13:39;;;;;;;5.68;4.28;;;15.50;91.60;;;;;;4590724;19;20044;-24
2023/05/12 03:15:11;;;;;;;7.20;4.47;;;15.50;91.70;;;;;;4589443;19;20031;-24
2023/05/12 03:16:42;;;;;;;;;;;15.50;91.70;;;;;;4592430;19;20082;-24
2023/05/12 03:18:13;;;;;;;7.20;4.47;;;15.50;91.60;;;;;;4591029;19;19927;-25
2023/05/12 03:19:46;;;;;;;5.78;4.15;;;15.50;92.10;;;;;;4589794;19;20451;-26
2023/05/12 03:21:17;;;;;;;;;;;15.50;91.70;;;;;;4593304;19;20010;-27
2023/05/12 03:22:48;;;;;;;6.53;4.20;;;15.50;91.90;;;;;;4592424;19;20260;-23
2023/05/12 03:24:21;;;;;;;7.80;5.30;;;15.50;91.90;;;;;;4592363;19;20119;-24
2023/05/12 03:25:54;;;;;;;7.65;4.38;;;15.50;91.90;;;;;;4591181;19;20033;-24
2023/05/12 03:27:25;;;;;;;6.97;4.57;;;15.50;91.80;;;;;;4589825;19;20018;-24
2023/05/12 03:28:57;;;;;;;6.57;4.38;;;15.50;91.90;;;;;;4592140;19;20006;-24
2023/05/12 03:30:29;;;;;;;;;;;15.50;91.70;;;;;;4593008;19;20066;-23
2023/05/12 03:32:00;;;;;;;7.55;4.40;;;15.50;91.90;;;;;;4592367;19;19926;-28
2023/05/12 03:33:32;;;;;;;6.07;4.18;;;15.50;92.00;;;;;;4589335;19;20021;-27
2023/05/12 03:35:05;;;;;;;7.22;4.47;;;15.50;92.10;;;;;;4591243;19;20070;-24
2023/05/12 03:36:37;;;;;;;7.30;4.95;;;15.50;92.00;;;;;;4592224;19;20013;-22
2023/05/12 03:38:08;;;;;;;6.40;4.93;;;15.50;92.00;;;;;;4590599;19;20026;-24
2023/05/12 03:39:39;;;;;;;7.53;4.13;;;15.50;92.10;;;;;;4592126;19;20508;-23
2023/05/12 03:41:11;;;;;;;7.43;4.75;;;15.50;92.20;;;;;;4591946;19;20014;-26
2023/05/12 03:42:42;;;;;;;7.07;4.63;;;15.50;92.10;;;;;;4590985;19;20027;-25
2023/05/12 03:44:17;;;;;;;6.50;4.22;;;15.50;91.90;;;;;;4590235;19;20007;-23
2023/05/12 03:45:49;;;;;;;8.80;4.55;;;15.50;91.90;;;;;;4588743;19;20078;-28
2023/05/12 03:47:20;;;;;;;6.05;4.18;;;15.50;91.70;;;;;;4589184;19;20022;-25
2023/05/12 03:48:52;;;;;;;6.10;4.13;;;15.50;91.70;;;;;;4592465;19;20337;-28
2023/05/12 03:50:24;;;;;;;7.35;4.55;;;15.50;91.90;;;;;;4591282;19;20010;-23
2023/05/12 03:51:56;;;;;;;10.63;5.25;;;15.50;91.70;;;;;;4592604;19;20039;-24
2023/05/12 03:53:29;;;;;;;6.40;4.53;;;15.50;91.80;;;;;;4591238;19;20082;-27
2023/05/12 03:55:00;;;;;;;6.15;4.55;;;15.50;91.90;;;;;;4592232;19;20019;-23
2023/05/12 03:56:31;;;;;;;6.68;4.65;;;15.50;91.80;;;;;;4591545;19;20010;-23
2023/05/12 03:58:03;;;;;;;;;;;15.50;92.10;;;;;;4591799;19;20014;-23
2023/05/12 03:59:34;;;;;;;6.55;4.38;;;15.50;92.20;;;;;;4592321;19;20361;-24
2023/05/12 04:01:06;;;;;;;8.73;4.72;;;15.50;91.90;;;;;;4589755;19;20010;-23
2023/05/12 04:02:38;;;;;;;;;;;15.50;92.10;;;;;;4592276;19;20089;-21
2023/05/12 04:04:09;;;;;;;8.32;4.60;;;15.50;92.00;;;;;;4591925;19;20008;-23
2023/05/12 04:05:41;;;;;;;8.95;4.38;;;15.50;92.00;;;;;;4592487;19;20018;-24
2023/05/12 04:07:13;;;;;;;7.22;4.45;;;15.50;92.10;;;;;;4591319;19;20495;-24
2023/05/12 04:08:45;;;;;;;6.47;4.03;;;15.50;92.20;;;;;;4591197;19;20021;-26
2023/05/12 04:10:17;;;;;;;7.35;5.03;;;15.50;92.30;;;;;;4591406;19;20463;-24
2023/05/12 04:11:50;;;;;;;7.10;4.60;;;15.50;92.20;;;;;;4589600;19;20487;-24
2023/05/12 04:13:22;;;;;;;8.02;4.53;;;15.50;92.30;;;;;;4590315;19;20021;-25
2023/05/12 04:14:54;;;;;;;7.90;4.15;;;15.50;92.30;;;;;;4588814;19;20035;-23
2023/05/12 04:16:25;;;;;;;7.28;4.38;;;15.50;92.30;;;;;;4591526;19;20014;-24
2023/05/12 04:17:57;;;;;;;5.82;4.53;;;15.50;92.30;;;;;;4589231;19;20014;-30
2023/05/12 04:19:29;;;;;;;7.18;4.60;;;15.50;92.20;;;;;;4590503;19;20028;-24
2023/05/12 04:21:00;;;;;;;6.55;4.47;;;15.50;92.10;;;;;;4588892;19;20042;-24
2023/05/12 04:22:31;;;;;;;7.32;4.30;;;15.50;92.00;;;;;;4591406;19;20375;-25
2023/05/12 04:24:02;;;;;;;6.70;4.18;;;15.60;92.30;;;;;;4590611;19;20765;-24
2023/05/12 04:25:39;;;;;;;6.38;4.90;;;15.60;92.40;;;;;;4591643;19;20006;-27
2023/05/12 04:27:10;;;;;;;6.35;4.20;;;15.50;92.10;;;;;;4591127;19;20010;-31
2023/05/12 04:28:43;;;;;;;8.77;4.57;;;15.50;92.20;;;;;;4591506;19;20014;-23
2023/05/12 04:30:15;;;;;;;;;;;15.50;92.40;;;;;;4589952;19;20014;-24
2023/05/12 04:31:48;;;;;;;7.28;4.43;;;15.50;92.30;;;;;;4588830;19;19958;-28
2023/05/12 04:33:19;;;;;;;6.13;4.28;;;15.50;92.10;;;;;;4591017;19;20007;-24
2023/05/12 04:34:54;;;;;;;7.90;4.38;;;15.60;92.10;;;;;;4590667;19;20021;-26
2023/05/12 04:36:25;;;;;;;7.28;4.28;;;15.60;92.30;;;;;;4591188;19;20021;-24
2023/05/12 04:37:56;;;;;;;6.82;4.22;;;15.60;92.20;;;;;;4590396;19;20070;-24
2023/05/12 04:39:27;;;;;;;6.65;4.28;;;15.60;92.50;;;;;;4591483;19;20034;-29
2023/05/12 04:40:59;;;;;;;8.02;4.90;;;15.60;92.20;;;;;;4590478;19;20479;-28
2023/05/12 04:42:33;;;;;;;6.45;4.20;;;15.60;92.10;;;;;;4588275;19;20035;-23
2023/05/12 04:44:05;;;;;;;8.30;4.28;;;15.60;92.60;;;;;;4591448;19;20006;-23
2023/05/12 04:45:36;;;;;;;9.68;4.75;;;15.60;92.20;;;;;;4591599;19;20018;-23
2023/05/12 04:47:07;;;;;;;6.07;4.22;;;15.70;92.50;;;;;;4591210;19;20031;-26
2023/05/12 04:48:40;;;;;;;;;;;15.70;92.20;;;;;;4593343;19;20011;-23
2023/05/12 04:50:12;;;;;;;7.28;4.22;;;15.80;92.40;;;;;;4591756;19;19933;-24
2023/05/12 04:51:43;;;;;;;5.45;4.13;;;15.90;92.20;;;;;;4593274;19;20035;-22
2023/05/12 04:53:15;;;;;;;8.05;4.40;;;15.90;92.20;;;;;;4588678;19;20356;-23
2023/05/12 04:54:47;;;;;;;8.65;4.80;;;16.00;92.30;;;;;;4589756;19;20018;-25
2023/05/12 04:56:21;;;;;;;6.90;4.47;;;16.10;91.80;;;;;;4590416;19;20013;-24
2023/05/12 04:57:53;;;;;;;7.47;4.70;;;16.20;91.60;;;;;;4590647;19;20029;-23
2023/05/12 04:59:25;;;;;;;9.93;4.47;;;16.20;91.80;;;;;;4589310;19;20475;-25
2023/05/12 05:00:58;;;;;;;9.35;4.40;;;16.20;91.70;;;;;;4590793;19;20044;-24
2023/05/12 05:02:29;;;;;;;7.60;4.60;;;16.30;91.70;;;;;;4591041;19;20021;-24
2023/05/12 05:04:01;;;;;;;;;;;16.40;91.80;;;;;;4589945;19;20117;-24
2023/05/12 05:05:33;;;;;;;8.52;4.88;;;16.40;91.70;;;;;;4589346;19;19971;-24
2023/05/12 05:07:05;;;;;;;7.65;5.20;;;15.90;91.80;;;;;;4591172;19;20014;-24
2023/05/12 05:08:37;;;;;;;6.57;5.50;;;14.20;94.10;;;;;;4589285;19;20008;-23
2023/05/12 05:10:09;;;;;;;;;;;13.40;95.00;;;;;;4590817;19;20031;-24
2023/05/12 05:11:41;;;;;;;7.85;5.93;;;13.10;95.60;;;;;;4590289;19;19919;-23
2023/05/12 05:13:14;;;;;;;7.07;4.70;;;12.90;96.50;;;;;;4590036;19;20508;-23
2023/05/12 05:14:45;;;;;;;7.07;5.07;;;12.90;96.90;;;;;;4590107;19;20527;-22
2023/05/12 05:16:16;;;;;;;6.82;5.47;;;12.90;97.20;;;;;;4589979;19;20021;-23
2023/05/12 05:17:51;;;;;;;7.00;4.97;;;12.90;96.80;;;;;;4590090;19;20413;-27
2023/05/12 05:19:26;;;;;;;6.07;5.27;;;12.90;96.60;;;;;;4589292;19;20401;-27
2023/05/12 05:20:58;;;;;;;8.75;5.43;;;12.90;95.90;;;;;;4591959;19;20527;-23
2023/05/12 05:22:30;;;;;;;6.97;4.80;;;13.00;96.50;;;;;;4590145;19;20018;-24
2023/05/12 05:24:02;;;;;;;7.30;4.90;;;13.00;96.50;;;;;;4588932;19;20490;-23
2023/05/12 05:25:34;;;;;;;;;;;13.00;97.30;;;;;;4590818;19;20032;-23
2023/05/12 05:27:05;;;;;;;6.83;4.73;;;13.00;97.10;;;;;;4589249;19;19978;-24
2023/05/12 05:28:38;;;;;;;6.90;4.93;;;13.10;96.90;;;;;;4589667;19;20429;-24
2023/05/12 05:30:12;;;;;;;6.97;5.80;;;13.10;96.90;;;;;;4589879;19;20425;-25
2023/05/12 05:31:44;;;;;;;7.40;5.77;;;13.10;96.30;;;;;;4590086;19;21138;-23
2023/05/12 05:33:16;;;;;;;7.07;5.37;;;13.20;97.00;;;;;;4589387;19;20476;-23
2023/05/12 05:34:50;;;;;;;9.40;4.90;;;13.10;97.10;;;;;;4588517;19;20449;-26
2023/05/12 05:36:25;;;;;;;6.20;4.70;;;13.20;97.30;;;;;;4589707;19;20992;-24
2023/05/12 05:37:56;;;;;;;7.70;4.40;;;13.20;96.80;;;;;;4588950;19;20461;-24
2023/05/12 05:39:29;;;;;;;9.63;4.60;;;13.20;96.70;;;;;;4589527;19;20014;-26
2023/05/12 05:41:03;;;;;;;8.87;4.70;;;13.20;96.70;;;;;;4589500;19;20437;-23
2023/05/12 05:42:39;;;;;;;6.73;4.97;;;13.30;96.90;;;;;;4588403;19;20796;-27
2023/05/12 05:44:11;;;;;;;6.60;4.23;;;13.20;97.20;;;;;;4589795;19;20471;-23
2023/05/12 05:45:42;;;;;;;5.57;4.43;;;13.30;97.20;;;;;;4589559;19;20521;-24
2023/05/12 05:47:15;;;;;;;7.20;4.40;;;13.20;97.20;;;;;;4588214;19;20007;-23
2023/05/12 05:48:48;;;;;;;5.97;4.50;;;13.30;97.00;;;;;;4589495;19;20527;-23
2023/05/12 05:50:20;;;;;;;7.00;4.97;;;13.30;96.60;;;;;;4589984;19;20066;-23
2023/05/12 05:51:52;;;;;;;7.37;4.70;;;13.40;96.30;;;;;;4591272;19;20481;-23
2023/05/12 05:53:25;;;;;;;7.90;4.27;;;13.40;97.10;;;;;;4590589;19;20028;-24
2023/05/12 05:54:57;;;;;;;7.93;4.43;;;13.40;96.70;;;;;;4589067;19;20444;-26
2023/05/12 05:56:29;;;;;;;6.30;4.07;;;13.40;96.90;;;;;;4590912;19;20809;-23
2023/05/12 05:58:01;;;;;;;8.30;4.33;;;13.40;96.80;;;;;;4589071;19;20023;-23
2023/05/12 05:59:33;;;;;;;6.00;3.97;;;13.50;96.60;;;;;;4589426;19;20548;-23
2023/05/12 06:01:04;;;;;;;8.38;4.35;;;13.50;96.10;;;;;;4589866;19;20006;-23
2023/05/12 06:02:35;;;;;;;;;;;13.50;97.10;;;;;;4590816;19;20014;-23
2023/05/12 06:04:06;;;;;;;5.13;3.83;;;13.60;96.50;;;;;;4589472;19;20325;-23
2023/05/12 06:05:37;;;;;;;5.85;3.80;;;13.60;96.40;;;;;;4588887;19;20018;-22
2023/05/12 06:07:10;;;;;;;5.13;3.70;;;13.60;96.90;;;;;;4588831;19;20014;-30
2023/05/12 06:08:43;;;;;;;6.37;3.80;;;13.60;96.70;;;;;;4588823;19;20516;-25
2023/05/12 06:10:14;;;;;;;5.60;3.80;;;13.70;95.90;;;;;;4589292;19;20441;-26
2023/05/12 06:11:46;;;;;;;7.00;3.63;;;13.70;96.40;;;;;;4592206;19;20043;-23
2023/05/12 06:13:18;;;;;;;6.27;3.70;;;13.70;96.20;;;;;;4592580;19;20011;-26
2023/05/12 06:14:50;;;;;;;7.17;4.03;;;13.70;96.50;;;;;;4594712;19;20400;-23
2023/05/12 06:16:22;;;;;;;;;;;13.70;97.40;;;;;;4595360;19;20022;-25
2023/05/12 06:17:55;;;;;;;5.70;3.50;;;13.80;96.70;;;;;;4593072;19;19914;-25
2023/05/12 06:19:26;;;;;;;5.15;3.50;;;13.80;96.80;;;;;;4593023;19;20792;-26
2023/05/12 06:20:58;;;;;;;5.45;3.50;;;13.80;96.40;;;;;;4592197;19;20527;-25
2023/05/12 06:22:30;;;;;;;5.67;3.57;;;13.80;96.30;;;;;;4593590;19;20006;-25
2023/05/12 06:24:03;;;;;;;5.17;3.80;;;13.80;96.40;;;;;;4593597;19;20002;-23
2023/05/12 06:25:35;;;;;;;6.17;4.13;;;13.80;96.40;;;;;;4593718;19;20014;-23
2023/05/12 06:27:07;;;;;;;6.73;3.70;;;13.90;97.10;;;;;;4593445;19;20066;-22
2023/05/12 06:28:39;;;;;;;6.63;3.70;;;13.90;97.20;;;;;;4592184;19;20325;-23
2023/05/12 06:30:12;;;;;;;4.27;3.27;;;13.90;96.60;;;;;;4592050;19;20417;-23
2023/05/12 06:31:43;;;;;;;;;;;14.00;97.00;;;;;;4594272;19;20099;-24
2023/05/12 06:33:14;;;;;;;6.80;3.60;;;14.00;96.50;;;;;;4591108;19;19918;-23
2023/05/12 06:34:47;;;;;;;5.40;3.57;;;14.00;96.20;;;;;;4591750;19;20019;-23
2023/05/12 06:36:18;;;;;;;6.40;3.75;;;14.10;96.20;;;;;;4591250;19;20031;-22
2023/05/12 06:37:49;;;;;;;14.05;4.22;;;14.10;96.90;;;;;;4595692;19;20014;-23
2023/05/12 06:39:21;;;;;;;5.47;4.10;;;14.10;96.30;;;;;;4592335;19;20025;-25
2023/05/12 06:40:54;;;;;;;6.20;3.50;;;14.10;97.00;;;;;;4593281;19;20015;-24
2023/05/12 06:42:26;;;;;;;6.53;3.47;;;14.10;96.90;;;;;;4593797;19;20048;-23
2023/05/12 06:44:00;;;;;;;5.15;3.38;;;14.20;97.50;;;;;;4591919;19;20038;-25
2023/05/12 06:45:32;;;;;;;7.30;4.23;;;14.20;96.50;;;;;;4591933;19;20092;-27
2023/05/12 06:47:04;;;;;;;7.75;4.32;;;14.30;97.00;;;;;;4593065;19;20034;-22
2023/05/12 06:48:36;;;;;;;6.10;4.10;;;14.30;96.40;;;;;;4592356;19;20006;-27
2023/05/12 06:50:09;;;;;;;5.47;3.33;;;14.30;96.80;;;;;;4592688;19;20017;-24
2023/05/12 06:51:40;;;;;;;5.72;3.38;;;14.30;97.20;;;;;;4592957;19;20366;-23
2023/05/12 06:53:13;;;;;;;5.10;3.33;;;14.30;96.80;;;;;;4592670;19;20564;-29
2023/05/12 06:54:45;;;;;;;5.40;3.70;;;14.30;96.60;;;;;;4590616;19;20014;-23
2023/05/12 06:56:18;;;;;;;7.17;4.10;;;14.40;96.50;;;;;;4590485;19;20021;-28
2023/05/12 06:57:54;;;;;;;;;;;14.40;96.80;;;;;;4591336;19;20019;-24
2023/05/12 06:59:25;;;;;;;6.57;3.63;;;14.40;95.90;;;;;;4590727;19;19915;-28
2023/05/12 07:00:56;;;;;;;5.55;3.40;;;14.50;96.50;;;;;;4590953;19;20002;-25
2023/05/12 07:02:29;;;;;;;6.28;3.35;;;14.60;96.70;;;;;;4590686;19;20010;-23
2023/05/12 07:04:03;;;;;;;5.80;3.70;;;14.60;96.50;;;;;;4590760;19;20018;-26
2023/05/12 07:05:36;;;;;;;6.77;4.03;;;14.60;96.50;;;;;;4590685;19;20006;-27
2023/05/12 07:07:08;;;;;;;6.40;4.07;;;14.60;96.40;;;;;;4590688;19;20019;-26
2023/05/12 07:08:41;;;;;;;5.13;3.33;;;14.60;96.50;;;;;;4590460;19;20011;-26
2023/05/12 07:10:14;;;;;;;4.40;3.23;;;14.70;96.80;;;;;;4590276;19;20045;-27
2023/05/12 07:11:45;;;;;;;7.63;3.92;;;14.70;96.30;;;;;;4591085;19;19998;-22
2023/05/12 07:13:19;;;;;;;5.50;3.90;;;14.80;96.40;;;;;;4589210;19;20014;-25
2023/05/12 07:14:50;;;;;;;5.80;3.47;;;14.80;96.40;;;;;;4589965;19;20027;-23
2023/05/12 07:16:23;;;;;;;5.20;3.83;;;14.90;96.30;;;;;;4590134;19;20031;-28
2023/05/12 07:17:57;;;;;;;6.50;3.40;;;14.90;96.20;;;;;;4590803;19;20007;-23
2023/05/12 07:19:29;;;;;;;4.90;3.50;;;14.90;96.60;;;;;;4590349;19;20104;-27
2023/05/12 07:21:04;;;;;;;4.90;3.23;;;14.90;96.30;;;;;;4589604;19;20104;-23
2023/05/12 07:22:36;;;;;;;5.90;3.57;;;14.90;97.00;;;;;;4589966;19;20015;-24
2023/05/12 07:24:09;;;;;;;8.73;4.53;;;15.00;96.50;;;;;;4590285;19;20519;-23
2023/05/12 07:25:40;;;;;;;6.67;3.40;;;15.10;96.00;;;;;;4590417;19;20043;-23
2023/05/12 07:27:12;;;;;;;6.63;3.30;;;15.10;96.20;;;;;;4592307;19;20018;-24
2023/05/12 07:28:44;;;;;;;4.80;3.07;;;15.10;96.20;;;;;;4591404;19;20027;-26
2023/05/12 07:30:16;;;;;;;4.90;3.10;;;15.10;95.40;;;;;;4591926;19;20026;-25
2023/05/12 07:31:49;;;;;;;5.33;3.20;;;15.20;95.70;;;;;;4591991;19;20062;-30
2023/05/12 07:33:20;;;;;;;4.60;3.22;;;15.20;95.60;;;;;;4591574;19;20014;-27
2023/05/12 07:34:52;;;;;;;5.20;3.60;;;15.20;95.50;;;;;;4590988;19;20388;-23
2023/05/12 07:36:25;;;;;;;5.83;4.20;;;15.20;95.80;;;;;;4591996;19;20002;-20
2023/05/12 07:37:56;;;;;;;6.47;3.58;;;15.30;95.80;;;;;;4592192;19;20010;-24
2023/05/12 07:39:31;;;;;;;4.78;2.83;;;15.30;96.30;;;;;;4592492;19;20029;-24
2023/05/12 07:41:03;;;;;;;9.37;3.67;;;15.30;94.90;;;;;;4591481;19;20033;-28
2023/05/12 07:42:34;;;;;;;7.17;3.30;;;15.40;95.60;;;;;;4591801;19;20010;-26
2023/05/12 07:44:06;;;;;;;6.63;2.87;;;15.40;94.90;;;;;;4592101;19;20026;-22
2023/05/12 07:45:39;;;;;;;4.53;2.90;;;15.50;95.80;;;;;;4590727;19;20026;-29
2023/05/12 07:47:11;;;;;;;4.43;3.37;;;15.50;95.70;;;;;;4591181;19;20026;-23
2023/05/12 07:48:44;;;;;;;4.23;2.77;;;15.50;95.30;;;;;;4591304;19;20077;-23
2023/05/12 07:50:18;;;;;;;4.70;3.15;;;15.50;95.60;;;;;;4590540;19;20388;-22
2023/05/12 07:51:51;;;;;;;4.87;2.97;;;15.50;94.20;;;;;;4590906;19;20062;-28
2023/05/12 07:53:25;;;;;;;4.10;2.80;;;15.50;94.50;;;;;;4591088;19;20003;-27
2023/05/12 07:54:57;;;;;;;6.10;2.83;;;15.60;94.50;;;;;;4591757;19;20006;-27
2023/05/12 07:56:28;;;;;;;4.68;2.80;;;15.60;95.00;;;;;;4591836;19;20015;-25
2023/05/12 07:58:02;;;;;;;5.20;2.83;;;15.60;95.00;;;;;;4590588;19;20014;-23
2023/05/12 07:59:33;;;;;;;6.82;3.22;;;15.60;94.30;;;;;;4591001;19;20009;-23
2023/05/12 08:01:05;;;;;;;6.15;2.75;;;15.60;93.60;;;;;;4591213;19;20030;-23
2023/05/12 08:02:37;;;;;;;6.70;3.10;;;15.70;93.70;;;;;;4590432;19;20022;-23
2023/05/12 08:04:08;;;;;;;6.75;2.85;;;15.70;92.30;;;;;;4590722;19;20014;-26